Portada
METAR-TAF:

METAR-TAF

Aeroports :

Tiaret, Algèria

latitud: 35-15N, longitud: 001-26E, altitud: 1127 m

Observació

L'informe es va fer fa 1 hora i 8 minuts, a les 19:00 UTC
Vent 3 kt del Sud-Oest
Temperatura 8°C
Humitat 71%
Pressió 1027 hPa
Visibilitat 10 km o més
sense núvols per sota de 1500 mi sense presència de cumulonimbus.

METAR: DAOB 101900Z 22003KT CAVOK 08/03 Q1027

Hora: 21:08 (20:08 UTC)

Pronòstic

L'informe es va fer fa 3 hores i 8 minuts, a les 17:00 UTC
Pronòstic vàlid del 10 a les 18 UTC al 11 a les 18 UTC
Vent 2 kt amb direcció variable
Visibilitat 10 km o més
sense núvols per sota de 1500 mi sense presència de cumulonimbus.

TAF: DAOB 101700Z 1018/1118 VRB02KT CAVOK

Observacions i pronòstics meteorològics de més de 4000 aeroports (METAR i TAF).

Les estacions disponibles són els punts grocs i vermells al mapa.

Posi el ratolí al punt desitjat per veure el nom de l'estació.

Feu clic per veure les observacions i els pronòstics meteorològics.

Per canviar el mapa: feu clic els botons verds amb una creu de color negre per apropar; al botó verd amb un guió per allunyar la imatge; o en les fletxes verdes per a mapes adjacents.


METAR-TAF: